• Join FlightAware (Why Join?)
  • Login
  • US Flag 
09:55AM EDT


 

Airport Tracker/Info


-or-


 

Live Flight TrackerFlight Track Log ✈ N779NC ✈ 02-07-2013 ✈ KORD - KATL

Flight Track Log - Related Links

Times and Time Zones

All times are in EDT time to prevent confusion due to time zone crossing. See the N779NC flight status page for this flight to view local times or setup timezone preferences in your user account.

Time Position Orientation Groundspeed Altitude Reporting Facility
EDT Latitude Longitude Course Direction KTS MPH feet Rate Location/Type
03:10PM 42.0167 -87.9167 180° South 174 200 1,900  Level Chicago TRACON
03:11PM 42.0167 -87.8833 90° East 231 266 3,800 1,860 Climbing Chicago TRACON
03:12PM 41.9667 -87.8333 143° Southeast 257 296 5,700 1,800 Climbing Chicago TRACON
03:13PM 41.6175 -87.7360 171° South  Level Estimated
03:13PM 41.8711 -87.8178 173° South 265 305 8,000  Level Chicago Center
03:14PM 41.5264 -87.6936 168° South  Level Estimated
03:14PM 41.7947 -87.8111 176° South 275 316 9,800  Level Chicago Center
03:15PM 41.4353 -87.6514 180° South  Level Estimated
03:15PM 41.7122 -87.8031 176° South 291 335 11,400  Level Chicago Center
03:16PM 41.6169 -87.7950 176° South 335 386 12,100 960 Climbing Chicago Center
03:17PM 41.4881 -87.7864 177° South 375 432 13,400 1,920 Climbing Chicago Center
03:18PM 41.3811 -87.7881 181° South 381 438 16,100 1,980 Climbing Chicago Center
03:19PM 41.2781 -87.7961 183° South 369 425 17,600 1,500 Climbing Chicago Center
03:21PM 41.1731 -87.7956 180° South 374 430 19,200 1,320 Climbing Chicago Center
03:22PM 41.0656 -87.7786 173° South 386 444 20,400 1,260 Climbing Chicago Center
03:23PM 40.9581 -87.7486 168° South 395 455 21,900 1,260 Climbing Chicago Center
03:24PM 40.8481 -87.7153 167° South 400 460 23,100 1,200 Climbing Chicago Center
03:25PM 40.7144 -87.6739 167° South 407 468 24,400 1,140 Climbing Chicago Center
03:26PM 40.6000 -87.6364 166° South 416 479 25,500 1,200 Climbing Chicago Center
03:27PM 40.4864 -87.5964 165° South 421 484 27,000 1,140 Climbing Chicago Center
03:28PM 40.3756 -87.5556 164° South 419 482 27,900 1,200 Climbing Chicago Center
03:29PM 40.2672 -87.5114 163° South 414 476 29,500 1,320 Climbing Chicago Center
03:30PM 40.1453 -87.4436 157° South 403 464 30,700 900 Climbing Chicago Center
03:31PM 40.0814 -87.4103 158° South 401 461 31,100 120 Climbing Indianapolis Center
03:32PM 39.9772 -87.3569 159° South 403 464 31,000 -60 Descending Indianapolis Center
03:33PM 39.8683 -87.3081 161° South 412 474 31,000  Level Indianapolis Center
03:34PM 39.7392 -87.2467 160° South 414 476 31,000  Level Indianapolis Center
03:35PM 39.6331 -87.1961 160° South 410 472 31,000  Level Indianapolis Center
03:36PM 39.5272 -87.1444 159° South 409 471 31,000  Level Indianapolis Center
03:37PM 39.4206 -87.0922 159° South 412 474 31,000  Level Indianapolis Center
03:38PM 39.3142 -87.0411 160° South 412 474 31,000  Level Indianapolis Center
03:39PM 39.1875 -86.9789 159° South 410 472 31,000  Level Indianapolis Center
03:40PM 39.0911 -86.9336 160° South 412 474 31,000  Level Indianapolis Center
03:41PM 38.9831 -86.8892 162° South 406 467 31,000  Level Indianapolis Center
03:42PM 38.8742 -86.8450 162° South 407 468 31,000  Level Indianapolis Center
03:43PM 38.7408 -86.8069 167° South 404 465 31,000  Level Indianapolis Center
03:44PM 38.6292 -86.7794 169° South 404 465 31,000  Level Indianapolis Center
03:45PM 38.5161 -86.7589 172° South 406 467 31,000  Level Indianapolis Center
03:46PM 38.4019 -86.7411 173° South 406 467 31,000  Level Indianapolis Center
03:47PM 38.2853 -86.7342 177° South 410 472 31,000  Level Indianapolis Center
03:48PM 38.1692 -86.7269 177° South 411 473 31,000  Level Indianapolis Center
03:49PM 38.0536 -86.7189 177° South 410 472 31,000 180 Level Indianapolis Center
03:50PM 37.9414 -86.7083 176° South 402 463 31,400 480 Climbing Indianapolis Center
03:51PM 37.8319 -86.6894 172° South 394 453 32,000 660 Climbing Indianapolis Center
03:52PM 37.7244 -86.6606 168° South 392 451 32,800 540 Climbing Indianapolis Center
03:53PM 37.5950 -86.6253 168° South 396 456 33,200 420 Climbing Indianapolis Center
03:54PM 37.5008 -86.5997 168° South 394 453 33,700 600 Climbing Indianapolis Center
03:55PM 37.3792 -86.5586 165° South 385 443 34,500 540 Climbing Indianapolis Center
03:56PM 37.2775 -86.5211 164° South 379 436 34,900 240 Climbing Indianapolis Center
03:57PM 37.1733 -86.4878 166° South 381 438 35,000  Climbing Indianapolis Center
03:58PM 37.0878 -86.4719 172° South 381 438 35,000  Level Memphis Center
03:59PM 36.9850 -86.4508 171° South 376 433 35,000  Level Memphis Center
04:00PM 36.8825 -86.4431 177° South 371 427 35,000  Level Memphis Center
04:01PM 36.7908 -86.4372 177° South 371 427 35,000  Level Memphis Center
04:02PM 36.6925 -86.4314 177° South 365 420 35,000  Level Memphis Center
04:03PM 36.5922 -86.4236 176° South 365 420 35,000  Level Memphis Center
04:04PM 36.4897 -86.4106 174° South 365 420 35,000  Level Memphis Center
04:05PM 36.3789 -86.3978 175° South 370 426 35,000  Level Memphis Center
04:06PM 36.2783 -86.3872 175° South 370 426 35,000  Level Memphis Center
04:07PM 36.1781 -86.3742 174° South 370 426 35,000 -240 Level Memphis Center
04:08PM 36.0756 -86.3636 175° South 370 426 34,600 -540 Descending Memphis Center
04:09PM 35.9728 -86.3481 173° South 375 432 34,000 -480 Descending Memphis Center
04:12PM 35.7075 -86.3200 175° South 409 471 33,000 -480 Descending Atlanta Center
04:13PM 35.6044 -86.2636 156° South 403 464 32,500 -900 Descending Atlanta Center
04:14PM 35.5119 -86.1819 144° Southeast 403 464 31,300 -1,200 Descending Atlanta Center
04:15PM 35.4172 -86.1031 146° Southeast 403 464 30,100 -960 Descending Atlanta Center
04:16PM 35.3225 -86.0217 145° Southeast 415 478 29,400 -660 Descending Atlanta Center
04:17PM 35.2236 -85.9406 146° Southeast 421 484 28,800 -600 Descending Atlanta Center
04:18PM 35.1247 -85.8619 147° Southeast 426 490 28,300 -600 Descending Atlanta Center
04:19PM 35.0194 -85.7786 147° Southeast 431 496 27,700 -600 Descending Atlanta Center
04:20PM 34.9164 -85.7006 148° Southeast 436 502 27,200 -600 Descending Atlanta Center
04:21PM 34.8150 -85.6200 147° Southeast 441 507 26,600 -1,260 Descending Atlanta Center
04:22PM 34.7139 -85.5422 148° Southeast 441 507 24,700 -2,040 Descending Atlanta Center
04:23PM 34.6125 -85.4672 149° Southeast 441 507 22,600 -1,920 Descending Atlanta Center
04:24PM 34.5131 -85.3925 148° Southeast 426 490 20,900 -1,920 Descending Atlanta Center
04:25PM 34.4139 -85.3181 148° Southeast 421 484 18,800 -2,100 Descending Atlanta Center
04:26PM 34.3331 -85.2564 148° Southeast 402 463 16,800 -2,340 Descending Atlanta Center
04:27PM 34.2439 -85.1847 146° Southeast 391 450 14,200 -1,860 Descending Atlanta Center
04:28PM 34.1675 -85.1083 140° Southeast 369 425 13,100 -600 Descending Atlanta Center
04:29PM 34.1097 -85.0297 132° Southeast 323 372 13,100 -840 Level Atlanta Center
04:30PM 34.0306 -84.9814 153° Southeast 297 342 11,500 -1,620 Descending Atlanta Center
04:31PM 33.9875 -84.8981 122° Southeast 281 323 9,900 -1,200 Descending Atlanta Center
04:32PM 33.9442 -84.8175 123° Southeast 281 323 9,100 -600 Descending Atlanta Center
04:33PM 33.8756 -84.7794 155° Southeast 268 308 8,800 -1,260 Descending Atlanta Center
04:34PM 33.8111 -84.7514 160° South 256 295 6,600 -1,860 Descending Atlanta Center
04:35PM 33.7486 -84.7183 156° South 251 289 5,100 -1,260 Descending Atlanta Center
04:36PM 33.6833 -84.6667 147° Southeast 242 278 4,000 -1,020 Descending Atlanta TRACON